createdAt,value
2016-10-25T00:00:31.995Z,0
2016-10-25T00:01:45.004Z,0
2016-10-25T00:02:58.064Z,0
2016-10-25T00:04:11.076Z,0
2016-10-25T00:05:24.046Z,0
2016-10-25T00:06:37.623Z,0
2016-10-25T00:07:51.272Z,0
2016-10-25T00:09:04.175Z,0
2016-10-25T00:10:16.644Z,0
2016-10-25T00:11:29.120Z,0
2016-10-25T00:12:42.151Z,0
2016-10-25T00:13:54.107Z,0
2016-10-25T00:15:07.637Z,0
2016-10-25T00:16:20.658Z,0
2016-10-25T00:17:34.216Z,0
2016-10-25T00:18:47.186Z,0
2016-10-25T00:20:00.171Z,0
2016-10-25T00:21:12.119Z,0
2016-10-25T00:22:24.611Z,0
2016-10-25T00:23:37.065Z,0
2016-10-25T00:24:50.060Z,0
2016-10-25T00:26:03.029Z,0
2016-10-25T00:27:16.001Z,0
2016-10-25T00:28:28.477Z,0
2016-10-25T00:29:42.018Z,0
2016-10-25T00:30:55.536Z,0
2016-10-25T00:32:09.062Z,0
2016-10-25T00:33:22.029Z,0
2016-10-25T00:34:34.505Z,0
2016-10-25T00:35:46.465Z,0
2016-10-25T00:36:59.465Z,0
2016-10-25T00:38:12.972Z,0
2016-10-25T00:39:26.053Z,0
2016-10-25T00:40:39.134Z,0
2016-10-25T00:41:50.534Z,0
2016-10-25T00:43:03.555Z,0
2016-10-25T00:44:17.102Z,0
2016-10-25T00:45:28.528Z,0
2016-10-25T00:46:41.506Z,0
2016-10-25T00:47:53.918Z,0
2016-10-25T00:49:06.898Z,0
2016-10-25T00:50:19.377Z,0
2016-10-25T00:51:31.359Z,0
2016-10-25T00:52:43.321Z,0
2016-10-25T00:53:56.303Z,0
2016-10-25T00:55:09.294Z,0
2016-10-25T00:56:22.819Z,0
2016-10-25T00:57:36.366Z,0
2016-10-25T00:58:49.362Z,0
2016-10-25T01:00:01.813Z,0
2016-10-25T01:01:15.382Z,0
2016-10-25T01:02:28.913Z,0
2016-10-25T01:03:41.423Z,0
2016-10-25T01:04:53.930Z,0
2016-10-25T01:06:07.432Z,0
2016-10-25T01:07:20.948Z,0
2016-10-25T01:08:34.542Z,0
2016-10-25T01:09:48.031Z,0
2016-10-25T01:10:59.999Z,0
2016-10-25T01:12:12.996Z,0
2016-10-25T01:13:24.924Z,0
2016-10-25T01:14:37.914Z,0
2016-10-25T01:15:51.503Z,0
2016-10-25T01:17:03.895Z,0
2016-10-25T01:18:15.886Z,0
2016-10-25T01:19:28.381Z,0
2016-10-25T01:20:41.949Z,0
2016-10-25T01:21:55.477Z,0
2016-10-25T01:23:08.572Z,0
2016-10-25T01:24:22.059Z,0
2016-10-25T01:25:35.558Z,0
2016-10-25T01:26:47.473Z,0
2016-10-25T01:28:00.514Z,0
2016-10-25T01:29:13.470Z,0
2016-10-25T01:30:26.486Z,0
2016-10-25T01:31:39.480Z,0
2016-10-25T01:32:51.957Z,0
2016-10-25T01:34:04.959Z,0
2016-10-25T01:35:16.915Z,0
2016-10-25T01:36:29.932Z,0
2016-10-25T01:37:43.375Z,0
2016-10-25T01:38:56.901Z,0
2016-10-25T01:40:10.472Z,0
2016-10-25T01:41:22.936Z,0
2016-10-25T01:42:36.479Z,0
2016-10-25T01:43:49.511Z,0
2016-10-25T01:45:02.571Z,0
2016-10-25T01:46:15.630Z,0
2016-10-25T01:47:29.181Z,0
2016-10-25T01:48:40.594Z,0
2016-10-25T01:49:52.575Z,0
2016-10-25T01:51:04.013Z,0
2016-10-25T01:52:16.964Z,0
2016-10-25T01:53:29.458Z,0
2016-10-25T01:54:42.398Z,0
2016-10-25T01:55:55.909Z,0
2016-10-25T01:57:09.512Z,0
2016-10-25T01:58:23.081Z,0
2016-10-25T02:00:33.938Z,0
2016-10-25T02:01:46.933Z,0
2016-10-25T02:02:58.898Z,0
2016-10-25T02:04:12.443Z,0
2016-10-25T02:05:25.429Z,0
2016-10-25T02:06:38.472Z,0
2016-10-25T02:07:51.466Z,0
2016-10-25T02:09:04.030Z,0
2016-10-25T02:10:16.547Z,0
2016-10-25T02:11:29.646Z,0
2016-10-25T02:12:42.634Z,0
2016-10-25T02:16:11.496Z,0
2016-10-25T02:17:24.601Z,0
2016-10-25T02:18:37.107Z,0
2016-10-25T02:19:50.221Z,0
2016-10-25T02:21:03.794Z,0
2016-10-25T02:22:16.335Z,0
2016-10-25T02:23:28.879Z,0
2016-10-25T02:24:41.916Z,0
2016-10-25T02:25:54.963Z,0
2016-10-25T02:27:08.052Z,0
2016-10-25T02:28:21.618Z,0
2016-10-25T02:29:34.614Z,0
2016-10-25T02:30:48.212Z,0
2016-10-25T02:32:01.278Z,0
2016-10-25T02:33:14.940Z,0
2016-10-25T02:34:27.503Z,0
2016-10-25T02:35:41.145Z,0
2016-10-25T02:36:54.225Z,0
2016-10-25T02:38:06.264Z,0
2016-10-25T02:39:18.746Z,0
2016-10-25T02:40:30.724Z,0
2016-10-25T02:41:44.317Z,0
2016-10-25T02:42:57.931Z,0
2016-10-25T02:44:11.047Z,0
2016-10-25T02:45:24.119Z,0
2016-10-25T02:46:36.687Z,0
2016-10-25T02:47:49.779Z,0
2016-10-25T02:49:02.773Z,0
2016-10-25T02:50:16.354Z,0
2016-10-25T02:51:29.466Z,0
2016-10-25T02:52:42.464Z,0
2016-10-25T02:53:55.522Z,0
2016-10-25T02:55:08.558Z,0
2016-10-25T02:56:21.722Z,0
2016-10-25T02:57:34.783Z,0
2016-10-25T02:58:48.368Z,0
2016-10-25T03:00:01.416Z,0
2016-10-25T03:01:14.490Z,0
2016-10-25T03:02:27.524Z,0
2016-10-25T03:03:41.175Z,0
2016-10-25T03:04:54.776Z,0
2016-10-25T03:06:08.438Z,0
2016-10-25T03:07:22.018Z,0
2016-10-25T03:08:34.539Z,0
2016-10-25T03:09:47.636Z,0
2016-10-25T03:11:00.212Z,0
2016-10-25T03:12:13.309Z,0
2016-10-25T03:13:27.019Z,0
2016-10-25T03:14:40.573Z,0
2016-10-25T03:15:53.156Z,0
2016-10-25T03:17:06.178Z,0
2016-10-25T03:18:19.272Z,0
2016-10-25T03:19:32.443Z,0
2016-10-25T03:20:46.053Z,0
2016-10-25T03:21:58.606Z,0
2016-10-25T03:23:12.170Z,0
2016-10-25T03:24:24.687Z,0
2016-10-25T03:25:38.261Z,0
2016-10-25T03:26:51.251Z,0
2016-10-25T03:28:04.283Z,0
2016-10-25T03:29:17.855Z,0
2016-10-25T03:30:59.763Z,0
2016-10-25T03:32:12.853Z,0
2016-10-25T03:33:25.916Z,0
2016-10-25T03:34:39.502Z,0
2016-10-25T03:35:53.075Z,0
2016-10-25T03:37:06.163Z,0
2016-10-25T03:38:18.178Z,0
2016-10-25T03:39:31.733Z,0
2016-10-25T03:40:44.826Z,0
2016-10-25T03:41:57.932Z,0
2016-10-25T03:43:10.972Z,0
2016-10-25T03:46:40.259Z,0
2016-10-25T03:47:52.235Z,0
2016-10-25T03:49:04.743Z,0
2016-10-25T03:50:17.821Z,0
2016-10-25T03:51:30.342Z,0
2016-10-25T03:52:43.343Z,0
2016-10-25T03:53:56.432Z,0
2016-10-25T03:55:09.946Z,0
2016-10-25T03:56:22.396Z,0
2016-10-25T03:57:34.863Z,0
2016-10-25T03:58:47.414Z,0
2016-10-25T04:00:00.955Z,0
2016-10-25T04:01:12.937Z,0
2016-10-25T04:02:25.934Z,0
2016-10-25T04:03:39.041Z,0
2016-10-25T04:04:50.466Z,0
2016-10-25T04:06:03.459Z,0
2016-10-25T04:07:15.883Z,0
2016-10-25T04:08:29.462Z,0
2016-10-25T04:09:41.967Z,0
2016-10-25T04:10:54.997Z,0
2016-10-25T04:12:08.121Z,0
2016-10-25T04:13:21.150Z,0
2016-10-25T04:14:33.661Z,0
2016-10-25T04:15:47.203Z,0
2016-10-25T04:17:00.814Z,0
2016-10-25T04:18:14.394Z,0
2016-10-25T04:19:28.018Z,0
2016-10-25T04:20:40.567Z,0
2016-10-25T04:21:53.600Z,0
2016-10-25T04:23:07.223Z,0
2016-10-25T04:24:19.731Z,0
2016-10-25T04:25:33.334Z,0
2016-10-25T04:26:46.917Z,0
2016-10-25T04:27:58.891Z,0
2016-10-25T04:29:11.984Z,0
2016-10-25T04:30:25.568Z,0
2016-10-25T04:31:38.206Z,0
2016-10-25T04:32:51.816Z,0
2016-10-25T04:34:04.370Z,0
2016-10-25T04:35:16.957Z,0
2016-10-25T04:36:30.065Z,0
2016-10-25T04:37:43.608Z,0
2016-10-25T04:38:57.181Z,0
2016-10-25T04:40:10.216Z,0
2016-10-25T04:41:23.276Z,0
2016-10-25T04:42:35.835Z,0
2016-10-25T04:43:49.434Z,0
2016-10-25T04:45:02.963Z,0
2016-10-25T04:46:16.021Z,0
2016-10-25T04:47:29.043Z,0
2016-10-25T04:48:41.997Z,0
2016-10-25T04:49:54.480Z,0
2016-10-25T04:51:07.513Z,0
2016-10-25T04:52:20.536Z,0
2016-10-25T04:53:33.571Z,0
2016-10-25T04:54:46.111Z,0
2016-10-25T04:55:59.673Z,0
2016-10-25T04:57:12.752Z,0
2016-10-25T04:58:24.743Z,0
2016-10-25T04:59:37.236Z,0
2016-10-25T05:00:50.325Z,0
2016-10-25T05:02:02.328Z,0
2016-10-25T05:03:14.823Z,0
2016-10-25T05:04:27.890Z,0
2016-10-25T05:05:40.948Z,0
2016-10-25T05:06:52.910Z,0
2016-10-25T05:08:06.550Z,0
2016-10-25T05:09:20.156Z,0
2016-10-25T05:10:33.231Z,0
2016-10-25T05:11:46.279Z,0
2016-10-25T05:12:58.874Z,0
2016-10-25T05:14:11.403Z,0
2016-10-25T05:15:24.001Z,0
2016-10-25T05:16:35.957Z,0
2016-10-25T05:17:48.459Z,0
2016-10-25T05:19:02.055Z,0
2016-10-25T05:20:15.106Z,0
2016-10-25T05:21:28.144Z,0
2016-10-25T05:22:41.206Z,0
2016-10-25T05:23:53.770Z,0
2016-10-25T05:25:06.849Z,0
2016-10-25T05:26:19.352Z,0
2016-10-25T05:27:32.375Z,0
2016-10-25T05:28:44.889Z,0
2016-10-25T05:29:57.386Z,0
2016-10-25T05:31:10.467Z,0
2016-10-25T05:32:23.516Z,0
2016-10-25T05:33:36.577Z,0
2016-10-25T05:34:50.110Z,0
2016-10-25T05:36:03.162Z,0
2016-10-25T05:37:16.724Z,0
2016-10-25T05:38:30.294Z,0
2016-10-25T05:39:43.958Z,0
2016-10-25T05:40:57.013Z,0
2016-10-25T05:42:10.043Z,0
2016-10-25T05:43:22.062Z,0
2016-10-25T05:44:35.642Z,0
2016-10-25T05:45:48.735Z,0
2016-10-25T05:47:02.362Z,0
2016-10-25T05:48:15.447Z,0
2016-10-25T05:49:28.477Z,0
2016-10-25T05:50:41.496Z,0
2016-10-25T05:51:55.039Z,0
2016-10-25T05:53:07.490Z,0
2016-10-25T05:54:20.578Z,0
2016-10-25T05:55:33.138Z,0
2016-10-25T05:56:46.221Z,0
2016-10-25T05:57:59.792Z,0
2016-10-25T05:59:13.325Z,0
2016-10-25T06:00:26.408Z,0
2016-10-25T06:01:39.495Z,0
2016-10-25T06:02:52.025Z,0
2016-10-25T06:04:05.530Z,0
2016-10-25T06:05:19.102Z,0
2016-10-25T06:06:31.581Z,0
2016-10-25T06:07:44.136Z,0
2016-10-25T06:08:57.197Z,0
2016-10-25T06:10:09.729Z,0
2016-10-25T06:11:22.269Z,0
2016-10-25T06:12:34.787Z,0
2016-10-25T06:13:47.806Z,0
2016-10-25T06:15:01.361Z,0
2016-10-25T06:16:13.882Z,0
2016-10-25T06:17:26.420Z,0
2016-10-25T06:18:40.017Z,0
2016-10-25T06:19:53.139Z,0
2016-10-25T06:21:06.204Z,0
2016-10-25T06:22:18.252Z,0
2016-10-25T06:23:30.334Z,0
2016-10-25T06:24:43.514Z,0
2016-10-25T06:25:56.552Z,0
2016-10-25T06:27:09.043Z,0
2016-10-25T06:28:21.558Z,0
2016-10-25T06:29:35.130Z,0
2016-10-25T06:30:47.691Z,0
2016-10-25T06:32:00.235Z,0
2016-10-25T06:33:13.817Z,0
2016-10-25T06:34:26.898Z,0
2016-10-25T06:35:39.935Z,0
2016-10-25T06:36:52.377Z,0
2016-10-25T06:38:05.946Z,0
2016-10-25T06:39:17.978Z,0
2016-10-25T06:40:31.036Z,0
2016-10-25T06:41:43.570Z,0
2016-10-25T06:42:56.679Z,0
2016-10-25T06:44:09.229Z,0
2016-10-25T06:45:22.290Z,0
2016-10-25T06:46:35.891Z,0
2016-10-25T06:47:48.886Z,0
2016-10-25T06:49:01.888Z,0
2016-10-25T06:50:13.883Z,0
2016-10-25T06:51:27.461Z,0
2016-10-25T06:52:40.449Z,0
2016-10-25T06:53:52.958Z,0
2016-10-25T06:55:06.013Z,0
2016-10-25T06:56:18.520Z,0
2016-10-25T06:57:32.108Z,0
2016-10-25T06:58:45.152Z,0
2016-10-25T06:59:58.716Z,0
2016-10-25T07:01:11.269Z,0
2016-10-25T07:02:23.893Z,0
2016-10-25T07:03:36.952Z,0
2016-10-25T07:04:50.086Z,0
2016-10-25T07:06:03.179Z,0
2016-10-25T07:07:16.225Z,0
2016-10-25T07:08:28.731Z,0
2016-10-25T07:09:41.793Z,0
2016-10-25T07:10:54.323Z,0
2016-10-25T07:12:07.394Z,0
2016-10-25T07:13:20.425Z,0
2016-10-25T07:14:32.894Z,0
2016-10-25T07:15:45.446Z,0
2016-10-25T07:16:57.996Z,0
2016-10-25T07:18:11.043Z,0
2016-10-25T07:19:23.616Z,0
2016-10-25T07:20:36.664Z,0
2016-10-25T07:21:50.247Z,0
2016-10-25T07:23:03.817Z,0
2016-10-25T07:24:17.418Z,0
2016-10-25T07:25:29.364Z,0
2016-10-25T07:26:42.440Z,0
2016-10-25T07:27:54.994Z,0
2016-10-25T07:29:07.959Z,0
2016-10-25T07:30:20.481Z,0
2016-10-25T07:31:34.096Z,0
2016-10-25T07:32:45.581Z,0
2016-10-25T07:33:58.657Z,0
2016-10-25T07:35:12.254Z,0
2016-10-25T07:36:25.309Z,0
2016-10-25T07:37:38.926Z,0
2016-10-25T07:38:51.955Z,0
2016-10-25T07:40:04.986Z,0
2016-10-25T07:41:18.021Z,0
2016-10-25T07:42:30.059Z,0
2016-10-25T07:43:43.704Z,0
2016-10-25T07:44:56.765Z,0
2016-10-25T07:46:09.344Z,0
2016-10-25T07:47:21.871Z,0
2016-10-25T07:48:34.412Z,0
2016-10-25T07:49:47.427Z,0
2016-10-25T07:51:00.459Z,0
2016-10-25T07:52:13.000Z,0
2016-10-25T07:53:26.027Z,0
2016-10-25T07:54:38.471Z,0
2016-10-25T07:55:50.506Z,0
2016-10-25T07:57:03.749Z,0
2016-10-25T07:58:17.367Z,0
2016-10-25T07:59:30.442Z,0
2016-10-25T08:00:43.429Z,0
2016-10-25T08:01:55.980Z,0
2016-10-25T08:03:09.516Z,0
2016-10-25T08:04:22.499Z,0
2016-10-25T08:05:34.981Z,0
2016-10-25T08:06:48.578Z,0
2016-10-25T08:08:00.555Z,0
2016-10-25T08:09:14.121Z,0
2016-10-25T08:10:26.620Z,0
2016-10-25T08:11:40.211Z,0
2016-10-25T08:12:53.317Z,4
2016-10-25T08:14:06.571Z,0
2016-10-25T08:15:19.100Z,4
2016-10-25T08:16:32.160Z,4
2016-10-25T08:17:44.658Z,8
2016-10-25T08:18:57.696Z,8
2016-10-25T08:20:10.229Z,12
2016-10-25T08:21:22.773Z,12
2016-10-25T08:22:35.771Z,12
2016-10-25T08:23:48.862Z,20
2016-10-25T08:25:01.908Z,20
2016-10-25T08:26:14.552Z,24
2016-10-25T08:27:27.536Z,28
2016-10-25T08:28:41.105Z,32
2016-10-25T08:29:53.637Z,40
2016-10-25T08:31:06.719Z,48
2016-10-25T08:32:18.707Z,56
2016-10-25T08:33:31.736Z,68
2016-10-25T08:34:44.236Z,76
2016-10-25T08:35:57.804Z,80
2016-10-25T08:37:11.417Z,96
2016-10-25T08:38:24.443Z,116
2016-10-25T08:39:38.039Z,140
2016-10-25T08:40:49.972Z,160
2016-10-25T08:42:02.478Z,184
2016-10-25T08:43:15.521Z,216
2016-10-25T08:44:29.095Z,244
2016-10-25T08:45:42.096Z,268
2016-10-25T08:46:54.115Z,288
2016-10-25T08:48:05.580Z,284
2016-10-25T08:49:18.183Z,304
2016-10-25T08:50:31.772Z,332
2016-10-25T08:51:44.788Z,340
2016-10-25T08:52:57.870Z,336
2016-10-25T08:54:11.450Z,356
2016-10-25T08:55:23.527Z,372
2016-10-25T08:56:37.192Z,368
2016-10-25T08:57:50.800Z,380
2016-10-25T08:59:03.316Z,452
2016-10-25T09:00:16.922Z,484
2016-10-25T09:01:30.550Z,484
2016-10-25T09:02:44.152Z,484
2016-10-25T09:03:57.693Z,512
2016-10-25T09:05:10.761Z,520
2016-10-25T09:06:23.218Z,484
2016-10-25T09:07:36.797Z,472
2016-10-25T09:08:50.337Z,512
2016-10-25T09:10:03.876Z,584
2016-10-25T09:11:17.012Z,644
2016-10-25T09:12:30.622Z,688
2016-10-25T09:13:43.175Z,688
2016-10-25T09:14:56.195Z,708
2016-10-25T09:16:08.247Z,712
2016-10-25T09:17:21.843Z,808
2016-10-25T09:18:34.890Z,860
2016-10-25T09:19:47.920Z,932
2016-10-25T09:21:00.990Z,1004
2016-10-25T09:22:14.044Z,1048
2016-10-25T09:23:27.635Z,1092
2016-10-25T09:24:41.274Z,1148
2016-10-25T09:25:54.900Z,1192
2016-10-25T09:27:07.410Z,1200
2016-10-25T09:28:20.426Z,1220
2016-10-25T09:29:33.506Z,1236
2016-10-25T09:30:46.579Z,1172
2016-10-25T09:31:58.563Z,1188
2016-10-25T09:33:10.577Z,1140
2016-10-25T09:34:24.186Z,1140
2016-10-25T09:35:37.820Z,1272
2016-10-25T09:36:50.884Z,1400
2016-10-25T09:38:03.888Z,1396
2016-10-25T09:39:16.493Z,1304
2016-10-25T09:40:29.532Z,1316
2016-10-25T09:41:42.041Z,1308
2016-10-25T09:42:54.533Z,1220
2016-10-25T09:44:07.648Z,1136
2016-10-25T09:45:20.200Z,1164
2016-10-25T09:46:32.710Z,1208
2016-10-25T09:47:45.237Z,1316
2016-10-25T09:48:57.698Z,1424
2016-10-25T09:50:11.268Z,1456
2016-10-25T09:51:24.882Z,1500
2016-10-25T09:52:37.914Z,1584
2016-10-25T09:53:50.961Z,1572
2016-10-25T09:55:04.572Z,1544
2016-10-25T09:56:17.164Z,1524
2016-10-25T09:57:30.157Z,1504
2016-10-25T09:58:42.673Z,1508
2016-10-25T09:59:55.726Z,1592
2016-10-25T10:01:09.269Z,1620
2016-10-25T10:02:22.259Z,1632
2016-10-25T10:03:35.857Z,1688
2016-10-25T10:04:49.451Z,1592
2016-10-25T10:06:02.028Z,1684
2016-10-25T10:07:15.028Z,1668
2016-10-25T10:08:28.630Z,1732
2016-10-25T10:09:41.134Z,1768
2016-10-25T10:10:54.099Z,1820
2016-10-25T10:12:06.592Z,1952
2016-10-25T10:13:19.094Z,2472
2016-10-25T10:14:31.220Z,2744
2016-10-25T10:15:44.228Z,2660
2016-10-25T10:16:56.710Z,3632
2016-10-25T10:18:08.214Z,3088
2016-10-25T10:19:20.722Z,3172
2016-10-25T10:20:33.808Z,3404
2016-10-25T10:21:46.331Z,3616
2016-10-25T10:22:59.435Z,3848
2016-10-25T10:24:12.472Z,4128
2016-10-25T10:25:24.957Z,4708
2016-10-25T10:26:38.013Z,5064
2016-10-25T10:27:51.539Z,5272
2016-10-25T10:29:04.080Z,5908
2016-10-25T10:30:17.624Z,5096
2016-10-25T10:31:30.696Z,4916
2016-10-25T10:32:43.831Z,5856
2016-10-25T10:33:57.439Z,6252
2016-10-25T10:35:11.038Z,4664
2016-10-25T10:36:24.221Z,5836
2016-10-25T10:37:37.808Z,5236
2016-10-25T10:38:50.308Z,5464
2016-10-25T10:40:02.319Z,5268
2016-10-25T10:41:15.366Z,6712
2016-10-25T10:42:28.385Z,6392
2016-10-25T10:43:40.385Z,6236
2016-10-25T10:44:52.857Z,6700
2016-10-25T10:46:06.420Z,9760
2016-10-25T10:47:19.512Z,11776
2016-10-25T10:48:33.128Z,9820
2016-10-25T10:49:46.200Z,7000
2016-10-25T10:50:59.241Z,4712
2016-10-25T10:52:11.802Z,3952
2016-10-25T10:53:24.827Z,3808
2016-10-25T10:54:37.300Z,3600
2016-10-25T10:55:50.834Z,3740
2016-10-25T10:57:03.852Z,3624
2016-10-25T10:58:17.396Z,3700
2016-10-25T10:59:30.954Z,3792
2016-10-25T11:00:44.615Z,3468
2016-10-25T11:01:57.132Z,3176
2016-10-25T11:03:10.789Z,3128
2016-10-25T11:04:24.403Z,3212
2016-10-25T11:05:36.413Z,3200
2016-10-25T11:06:49.533Z,3280
2016-10-25T11:08:02.578Z,3760
2016-10-25T11:09:15.121Z,3524
2016-10-25T11:10:28.711Z,2928
2016-10-25T11:11:42.296Z,2548
2016-10-25T11:12:55.406Z,2288
2016-10-25T11:14:08.505Z,2192
2016-10-25T11:15:22.102Z,2136
2016-10-25T11:16:35.657Z,2180
2016-10-25T11:17:48.684Z,2048
2016-10-25T11:19:02.224Z,2124
2016-10-25T11:20:15.278Z,2320
2016-10-25T11:21:27.872Z,2476
2016-10-25T11:22:40.856Z,3056
2016-10-25T11:23:53.949Z,3168
2016-10-25T11:25:06.979Z,2864
2016-10-25T11:26:19.572Z,3276
2016-10-25T11:27:32.633Z,4076
2016-10-25T11:28:45.751Z,3640
2016-10-25T11:29:58.887Z,4176
2016-10-25T11:31:12.576Z,4184
2016-10-25T11:32:26.115Z,4336
2016-10-25T11:33:39.196Z,4712
2016-10-25T11:34:52.251Z,4648
2016-10-25T11:36:05.284Z,4616
2016-10-25T11:37:17.341Z,4532
2016-10-25T11:38:30.407Z,4728
2016-10-25T11:39:44.026Z,4884
2016-10-25T11:40:57.613Z,4640
2016-10-25T11:42:10.640Z,4612
2016-10-25T11:43:23.693Z,4468
2016-10-25T11:44:36.221Z,4364
2016-10-25T11:45:49.782Z,4276
2016-10-25T11:47:02.387Z,4288
2016-10-25T11:48:14.336Z,4380
2016-10-25T11:49:27.958Z,4452
2016-10-25T11:50:41.102Z,4564
2016-10-25T11:51:54.819Z,4664
2016-10-25T11:53:08.443Z,4760
2016-10-25T11:54:21.427Z,4896
2016-10-25T11:55:33.907Z,5048
2016-10-25T11:56:47.320Z,5248
2016-10-25T11:58:00.352Z,5436
2016-10-25T11:59:13.465Z,5628
2016-10-25T12:00:27.103Z,5740
2016-10-25T12:01:40.640Z,5808
2016-10-25T12:02:54.253Z,5868
2016-10-25T12:04:38.387Z,5980
2016-10-25T12:05:50.926Z,6096
2016-10-25T12:07:02.989Z,6268
2016-10-25T12:08:16.068Z,6420
2016-10-25T12:09:29.640Z,6528
2016-10-25T12:10:42.105Z,6596
2016-10-25T12:11:55.155Z,6608
2016-10-25T12:13:08.722Z,6620
2016-10-25T12:14:21.723Z,6644
2016-10-25T12:15:34.776Z,6660
2016-10-25T12:16:48.334Z,6684
2016-10-25T12:18:01.932Z,6704
2016-10-25T12:19:15.509Z,6784
2016-10-25T12:20:28.594Z,6912
2016-10-25T12:21:42.228Z,7084
2016-10-25T12:22:55.300Z,7260
2016-10-25T12:24:08.321Z,7336
2016-10-25T12:25:21.351Z,7224
2016-10-25T12:26:33.879Z,7032
2016-10-25T12:27:46.407Z,6860
2016-10-25T12:29:00.010Z,6688
2016-10-25T12:30:13.072Z,6460
2016-10-25T12:31:26.209Z,6212
2016-10-25T12:32:38.714Z,5952
2016-10-25T12:33:51.744Z,5732
2016-10-25T12:35:03.749Z,5564
2016-10-25T12:36:16.772Z,5524
2016-10-25T12:37:30.330Z,5484
2016-10-25T12:38:43.411Z,5416
2016-10-25T12:39:57.053Z,5428
2016-10-25T12:41:10.105Z,5460
2016-10-25T12:42:23.731Z,5540
2016-10-25T12:43:37.258Z,5620
2016-10-25T12:44:50.310Z,5744
2016-10-25T12:46:03.909Z,5880
2016-10-25T12:47:16.967Z,6108
2016-10-25T12:48:29.537Z,6340
2016-10-25T12:49:42.059Z,6520
2016-10-25T12:50:55.102Z,6552
2016-10-25T12:52:08.616Z,6472
2016-10-25T12:53:20.603Z,6304
2016-10-25T12:54:33.133Z,6044
2016-10-25T12:55:46.258Z,5692
2016-10-25T12:56:59.818Z,5284
2016-10-25T12:58:13.420Z,4880
2016-10-25T12:59:27.016Z,4504
2016-10-25T13:00:40.050Z,4292
2016-10-25T13:01:53.587Z,4196
2016-10-25T13:03:07.177Z,4180
2016-10-25T13:04:20.195Z,4252
2016-10-25T13:05:33.805Z,4368
2016-10-25T13:06:45.828Z,4516
2016-10-25T13:07:59.403Z,4684
2016-10-25T13:09:12.431Z,4844
2016-10-25T13:10:24.456Z,4996
2016-10-25T13:11:38.021Z,5148
2016-10-25T13:12:50.523Z,5268
2016-10-25T13:14:03.070Z,5376
2016-10-25T13:15:16.606Z,5468
2016-10-25T13:16:30.178Z,5496
2016-10-25T13:17:43.767Z,5560
2016-10-25T13:18:56.856Z,5648
2016-10-25T13:20:09.446Z,5716
2016-10-25T13:21:23.033Z,5740
2016-10-25T13:22:36.585Z,5716
2016-10-25T13:23:48.629Z,5712
2016-10-25T13:25:01.636Z,5732
2016-10-25T13:26:14.168Z,5800
2016-10-25T13:27:27.212Z,5864
2016-10-25T13:28:39.741Z,5908
2016-10-25T13:29:52.298Z,5944
2016-10-25T13:31:05.361Z,5960
2016-10-25T13:32:18.398Z,6004
2016-10-25T13:33:31.986Z,6060
2016-10-25T13:34:44.477Z,6080
2016-10-25T13:35:58.044Z,6068
2016-10-25T13:37:11.135Z,6104
2016-10-25T13:38:23.670Z,6212
2016-10-25T13:39:37.291Z,6336
2016-10-25T13:40:49.791Z,6456
2016-10-25T13:42:02.816Z,6572
2016-10-25T13:43:16.427Z,6712
2016-10-25T13:44:29.502Z,6844
2016-10-25T13:45:43.116Z,6940
2016-10-25T13:46:55.648Z,6900
2016-10-25T13:48:08.668Z,6688
2016-10-25T13:49:21.236Z,6708
2016-10-25T13:50:33.773Z,6880
2016-10-25T13:51:46.802Z,7036
2016-10-25T13:52:59.821Z,7048
2016-10-25T13:54:12.804Z,7040
2016-10-25T13:55:26.338Z,7016
2016-10-25T13:56:39.401Z,7008
2016-10-25T13:57:52.440Z,7072
2016-10-25T13:59:06.070Z,7228
2016-10-25T14:00:18.603Z,7320
2016-10-25T14:01:31.708Z,7332
2016-10-25T14:02:45.325Z,7288
2016-10-25T14:03:58.345Z,7344
2016-10-25T14:05:10.885Z,7560
2016-10-25T14:06:23.987Z,7860
2016-10-25T14:07:37.575Z,8100
2016-10-25T14:08:51.098Z,8304
2016-10-25T14:10:04.113Z,8516
2016-10-25T14:11:17.688Z,8920
2016-10-25T14:12:30.715Z,9220
2016-10-25T14:13:43.795Z,9276
2016-10-25T14:14:56.414Z,9488
2016-10-25T14:16:09.515Z,9816
2016-10-25T14:17:22.078Z,9780
2016-10-25T14:18:35.620Z,9924
2016-10-25T14:19:49.238Z,10280
2016-10-25T14:21:02.826Z,10676
2016-10-25T14:22:15.815Z,10964
2016-10-25T14:23:28.884Z,11056
2016-10-25T14:24:42.529Z,11132
2016-10-25T14:25:55.578Z,10972
2016-10-25T14:27:08.062Z,10816
2016-10-25T14:28:21.658Z,10520
2016-10-25T14:29:34.706Z,10360
2016-10-25T14:30:47.749Z,10576
2016-10-25T14:32:00.810Z,10756
2016-10-25T14:33:14.392Z,11348
2016-10-25T14:34:26.901Z,11692
2016-10-25T14:35:39.460Z,12052
2016-10-25T14:36:52.525Z,11888
2016-10-25T14:38:05.615Z,11584
2016-10-25T14:39:18.141Z,11180
2016-10-25T14:40:30.102Z,10612
2016-10-25T14:41:42.607Z,9864
2016-10-25T14:42:54.658Z,9152
2016-10-25T14:44:08.208Z,8572
2016-10-25T14:45:20.738Z,8056
2016-10-25T14:46:33.776Z,7492
2016-10-25T14:47:46.875Z,7392
2016-10-25T14:48:59.910Z,7496
2016-10-25T14:50:11.935Z,7352
2016-10-25T14:51:25.005Z,7120
2016-10-25T14:52:38.073Z,6868
2016-10-25T14:53:51.105Z,6620
2016-10-25T14:55:04.641Z,6472
2016-10-25T14:56:17.668Z,6264
2016-10-25T14:57:30.257Z,6008
2016-10-25T14:58:43.382Z,5744
2016-10-25T14:59:55.907Z,5536
2016-10-25T15:01:09.209Z,5360
2016-10-25T15:02:22.501Z,5136
2016-10-25T15:03:35.555Z,4880
2016-10-25T15:04:48.584Z,4644
2016-10-25T15:06:01.619Z,4540
2016-10-25T15:07:14.117Z,4484
2016-10-25T15:08:27.167Z,4460
2016-10-25T15:09:39.696Z,4468
2016-10-25T15:10:53.309Z,4392
2016-10-25T15:12:05.865Z,4256
2016-10-25T15:13:18.990Z,4160
2016-10-25T15:14:32.053Z,4124
2016-10-25T15:15:43.987Z,4176
2016-10-25T15:16:57.566Z,4296
2016-10-25T15:18:10.077Z,4568
2016-10-25T15:19:23.652Z,4908
2016-10-25T15:20:36.713Z,5004
2016-10-25T15:21:50.307Z,5288
2016-10-25T15:23:02.361Z,5060
2016-10-25T15:24:15.957Z,4796
2016-10-25T15:25:29.438Z,4616
2016-10-25T15:26:43.030Z,4392
2016-10-25T15:27:56.163Z,4280
2016-10-25T15:29:09.164Z,4228
2016-10-25T15:30:22.158Z,4204
2016-10-25T15:31:34.655Z,4256
2016-10-25T15:32:47.652Z,4396
2016-10-25T15:34:00.840Z,4548
2016-10-25T15:35:13.812Z,4624
2016-10-25T15:36:26.331Z,4644
2016-10-25T15:37:38.342Z,4608
2016-10-25T15:38:49.763Z,4496
2016-10-25T15:40:02.367Z,4360
2016-10-25T15:41:15.446Z,4180
2016-10-25T15:42:29.065Z,4100
2016-10-25T15:43:42.111Z,4168
2016-10-25T15:44:55.701Z,4352
2016-10-25T15:46:08.767Z,4648
2016-10-25T15:47:21.802Z,5064
2016-10-25T15:48:33.777Z,5488
2016-10-25T15:49:46.237Z,5792
2016-10-25T15:50:58.716Z,5908
2016-10-25T15:52:10.220Z,6064
2016-10-25T15:53:22.272Z,6332
2016-10-25T15:54:35.293Z,6696
2016-10-25T15:55:47.457Z,6948
2016-10-25T15:56:59.972Z,6952
2016-10-25T15:58:12.978Z,6836
2016-10-25T15:59:26.074Z,6752
2016-10-25T16:00:39.207Z,6620
2016-10-25T16:01:52.787Z,6628
2016-10-25T16:03:05.796Z,6676
2016-10-25T16:04:18.297Z,6720
2016-10-25T16:05:31.833Z,6644
2016-10-25T16:06:45.413Z,6412
2016-10-25T16:07:57.997Z,6132
2016-10-25T16:09:11.103Z,5936
2016-10-25T16:10:23.677Z,5876
2016-10-25T16:11:36.775Z,5908
2016-10-25T16:12:49.878Z,5896
2016-10-25T16:14:02.894Z,6000
2016-10-25T16:15:15.999Z,6144
2016-10-25T16:16:29.124Z,6260
2016-10-25T16:17:41.102Z,6220
2016-10-25T16:18:55.327Z,6048
2016-10-25T16:20:08.414Z,5888
2016-10-25T16:21:21.463Z,5792
2016-10-25T16:22:34.491Z,5780
2016-10-25T16:23:48.066Z,5876
2016-10-25T16:25:00.630Z,6100
2016-10-25T16:26:13.643Z,6356
2016-10-25T16:27:26.187Z,6584
2016-10-25T16:28:39.246Z,6752
2016-10-25T16:29:52.810Z,6944
2016-10-25T16:31:04.315Z,7144
2016-10-25T16:32:16.875Z,7340
2016-10-25T16:33:29.982Z,7408
2016-10-25T16:34:43.527Z,7240
2016-10-25T16:35:57.115Z,6872
2016-10-25T16:37:10.186Z,6404
2016-10-25T16:38:23.146Z,5808
2016-10-25T16:39:35.672Z,5148
2016-10-25T16:40:48.728Z,4620
2016-10-25T16:42:01.777Z,4320
2016-10-25T16:43:13.819Z,4128
2016-10-25T16:44:26.820Z,4008
2016-10-25T16:45:39.363Z,3904
2016-10-25T16:46:50.305Z,3788
2016-10-25T16:48:03.345Z,3664
2016-10-25T16:49:15.890Z,3512
2016-10-25T16:50:28.357Z,3432
2016-10-25T16:51:39.858Z,3472
2016-10-25T16:52:52.358Z,3476
2016-10-25T16:54:04.290Z,3444
2016-10-25T16:55:16.867Z,3352
2016-10-25T16:56:30.461Z,3288
2016-10-25T16:57:42.473Z,3288
2016-10-25T16:58:54.431Z,3396
2016-10-25T17:00:06.959Z,3528
2016-10-25T17:01:19.476Z,3716
2016-10-25T17:02:32.480Z,3940
2016-10-25T17:03:46.083Z,4164
2016-10-25T17:04:58.633Z,4396
2016-10-25T17:06:12.333Z,4512
2016-10-25T17:07:25.391Z,4472
2016-10-25T17:08:37.876Z,4368